sensor_id;sensor_type;location;lat;lon;timestamp;P1;durP1;ratioP1;P2;durP2;ratioP2
48925;SDS011;39838;59.938;30.642;2022-09-27T00:01:21;31.42;;;16.17;;
48925;SDS011;39838;59.938;30.642;2022-09-27T00:03:52;28.40;;;14.85;;
48925;SDS011;39838;59.938;30.642;2022-09-27T00:06:22;23.23;;;15.18;;
48925;SDS011;39838;59.938;30.642;2022-09-27T00:08:50;25.40;;;15.43;;
48925;SDS011;39838;59.938;30.642;2022-09-27T00:11:19;23.73;;;15.27;;
48925;SDS011;39838;59.938;30.642;2022-09-27T00:13:51;24.05;;;15.45;;
48925;SDS011;39838;59.938;30.642;2022-09-27T00:16:19;24.63;;;15.30;;
48925;SDS011;39838;59.938;30.642;2022-09-27T00:18:46;27.48;;;16.15;;
48925;SDS011;39838;59.938;30.642;2022-09-27T00:21:15;26.67;;;15.80;;
48925;SDS011;39838;59.938;30.642;2022-09-27T00:23:42;33.15;;;16.77;;
48925;SDS011;39838;59.938;30.642;2022-09-27T00:26:10;31.08;;;16.95;;
48925;SDS011;39838;59.938;30.642;2022-09-27T00:28:38;29.70;;;16.85;;
48925;SDS011;39838;59.938;30.642;2022-09-27T00:31:10;30.27;;;18.08;;
48925;SDS011;39838;59.938;30.642;2022-09-27T00:33:45;28.75;;;16.63;;
48925;SDS011;39838;59.938;30.642;2022-09-27T00:36:13;29.15;;;17.35;;
48925;SDS011;39838;59.938;30.642;2022-09-27T00:38:42;28.90;;;16.60;;
48925;SDS011;39838;59.938;30.642;2022-09-27T00:41:11;34.67;;;16.95;;
48925;SDS011;39838;59.938;30.642;2022-09-27T00:43:42;32.25;;;16.65;;
48925;SDS011;39838;59.938;30.642;2022-09-27T00:46:12;28.58;;;15.98;;
48925;SDS011;39838;59.938;30.642;2022-09-27T00:48:40;30.88;;;17.20;;
48925;SDS011;39838;59.938;30.642;2022-09-27T00:51:08;27.85;;;15.40;;
48925;SDS011;39838;59.938;30.642;2022-09-27T00:53:37;24.58;;;14.75;;
48925;SDS011;39838;59.938;30.642;2022-09-27T00:58:42;23.77;;;12.93;;
48925;SDS011;39838;59.938;30.642;2022-09-27T01:01:15;24.50;;;14.15;;
48925;SDS011;39838;59.938;30.642;2022-09-27T01:03:43;25.30;;;13.02;;
48925;SDS011;39838;59.938;30.642;2022-09-27T01:06:15;19.23;;;12.20;;
48925;SDS011;39838;59.938;30.642;2022-09-27T01:08:45;17.95;;;10.65;;
48925;SDS011;39838;59.938;30.642;2022-09-27T01:11:13;20.92;;;12.27;;
48925;SDS011;39838;59.938;30.642;2022-09-27T01:13:53;19.30;;;11.38;;
48925;SDS011;39838;59.938;30.642;2022-09-27T01:16:35;19.63;;;11.65;;
48925;SDS011;39838;59.938;30.642;2022-09-27T01:21:47;17.27;;;10.60;;
48925;SDS011;39838;59.938;30.642;2022-09-27T01:24:30;18.63;;;11.20;;
48925;SDS011;39838;59.938;30.642;2022-09-27T01:30:21;17.65;;;10.85;;
48925;SDS011;39838;59.938;30.642;2022-09-27T01:32:53;18.88;;;10.65;;
48925;SDS011;39838;59.938;30.642;2022-09-27T01:35:32;18.63;;;10.43;;
48925;SDS011;39838;59.938;30.642;2022-09-27T01:38:05;15.77;;;9.38;;
48925;SDS011;39838;59.938;30.642;2022-09-27T01:40:42;18.83;;;9.80;;
48925;SDS011;39838;59.938;30.642;2022-09-27T01:43:17;15.40;;;9.75;;
48925;SDS011;39838;59.938;30.642;2022-09-27T01:45:50;19.30;;;10.25;;
48925;SDS011;39838;59.938;30.642;2022-09-27T01:48:23;18.23;;;10.97;;
48925;SDS011;39838;59.938;30.642;2022-09-27T01:50:55;21.13;;;11.10;;
48925;SDS011;39838;59.938;30.642;2022-09-27T01:53:29;21.20;;;11.15;;
48925;SDS011;39838;59.938;30.642;2022-09-27T01:56:00;20.25;;;11.43;;
48925;SDS011;39838;59.938;30.642;2022-09-27T01:58:32;18.70;;;11.00;;
48925;SDS011;39838;59.938;30.642;2022-09-27T02:01:05;21.23;;;11.93;;
48925;SDS011;39838;59.938;30.642;2022-09-27T02:03:35;23.15;;;11.65;;
48925;SDS011;39838;59.938;30.642;2022-09-27T02:06:07;19.70;;;11.18;;
48925;SDS011;39838;59.938;30.642;2022-09-27T02:08:39;18.77;;;10.57;;
48925;SDS011;39838;59.938;30.642;2022-09-27T02:11:12;19.50;;;10.20;;
48925;SDS011;39838;59.938;30.642;2022-09-27T02:13:42;18.85;;;10.80;;
48925;SDS011;39838;59.938;30.642;2022-09-27T02:16:18;24.42;;;11.10;;
48925;SDS011;39838;59.938;30.642;2022-09-27T02:18:53;23.92;;;10.65;;
48925;SDS011;39838;59.938;30.642;2022-09-27T02:21:29;20.25;;;11.02;;
48925;SDS011;39838;59.938;30.642;2022-09-27T02:24:04;19.25;;;11.65;;
48925;SDS011;39838;59.938;30.642;2022-09-27T02:26:36;18.48;;;11.13;;
48925;SDS011;39838;59.938;30.642;2022-09-27T02:29:09;19.70;;;11.57;;
48925;SDS011;39838;59.938;30.642;2022-09-27T02:31:40;18.60;;;10.80;;
48925;SDS011;39838;59.938;30.642;2022-09-27T02:34:09;21.15;;;11.38;;
48925;SDS011;39838;59.938;30.642;2022-09-27T02:36:42;19.73;;;11.73;;
48925;SDS011;39838;59.938;30.642;2022-09-27T02:39:09;19.83;;;11.18;;
48925;SDS011;39838;59.938;30.642;2022-09-27T02:41:37;20.48;;;11.35;;
48925;SDS011;39838;59.938;30.642;2022-09-27T02:44:05;19.42;;;11.68;;
48925;SDS011;39838;59.938;30.642;2022-09-27T02:49:32;18.83;;;11.68;;
48925;SDS011;39838;59.938;30.642;2022-09-27T02:52:13;21.80;;;12.23;;
48925;SDS011;39838;59.938;30.642;2022-09-27T02:54:53;19.27;;;13.18;;
48925;SDS011;39838;59.938;30.642;2022-09-27T02:57:32;19.55;;;13.00;;
48925;SDS011;39838;59.938;30.642;2022-09-27T03:00:07;21.83;;;13.55;;
48925;SDS011;39838;59.938;30.642;2022-09-27T03:02:40;28.27;;;14.70;;
48925;SDS011;39838;59.938;30.642;2022-09-27T03:05:17;26.98;;;15.57;;
48925;SDS011;39838;59.938;30.642;2022-09-27T03:07:47;25.75;;;13.68;;
48925;SDS011;39838;59.938;30.642;2022-09-27T03:10:15;24.98;;;15.27;;
48925;SDS011;39838;59.938;30.642;2022-09-27T03:12:44;27.33;;;14.70;;
48925;SDS011;39838;59.938;30.642;2022-09-27T03:15:11;22.38;;;13.20;;
48925;SDS011;39838;59.938;30.642;2022-09-27T03:17:40;18.25;;;12.60;;
48925;SDS011;39838;59.938;30.642;2022-09-27T03:20:08;21.13;;;12.65;;
48925;SDS011;39838;59.938;30.642;2022-09-27T03:22:35;22.15;;;12.45;;
48925;SDS011;39838;59.938;30.642;2022-09-27T03:25:02;23.67;;;12.88;;
48925;SDS011;39838;59.938;30.642;2022-09-27T03:27:30;25.15;;;13.40;;
48925;SDS011;39838;59.938;30.642;2022-09-27T03:29:58;21.42;;;13.77;;
48925;SDS011;39838;59.938;30.642;2022-09-27T03:32:25;24.30;;;12.93;;
48925;SDS011;39838;59.938;30.642;2022-09-27T03:34:54;24.65;;;12.93;;
48925;SDS011;39838;59.938;30.642;2022-09-27T03:37:21;20.02;;;12.65;;
48925;SDS011;39838;59.938;30.642;2022-09-27T03:39:48;19.08;;;12.77;;
48925;SDS011;39838;59.938;30.642;2022-09-27T03:42:16;22.30;;;12.43;;
48925;SDS011;39838;59.938;30.642;2022-09-27T03:44:43;22.92;;;12.43;;
48925;SDS011;39838;59.938;30.642;2022-09-27T03:47:10;27.83;;;12.88;;
48925;SDS011;39838;59.938;30.642;2022-09-27T03:49:37;22.02;;;12.00;;
48925;SDS011;39838;59.938;30.642;2022-09-27T03:52:06;23.60;;;12.93;;
48925;SDS011;39838;59.938;30.642;2022-09-27T03:54:33;22.52;;;12.80;;
48925;SDS011;39838;59.938;30.642;2022-09-27T03:57:00;26.27;;;12.48;;
48925;SDS011;39838;59.938;30.642;2022-09-27T03:59:27;19.92;;;11.55;;
48925;SDS011;39838;59.938;30.642;2022-09-27T04:01:55;21.70;;;11.15;;
48925;SDS011;39838;59.938;30.642;2022-09-27T04:04:22;22.40;;;10.85;;
48925;SDS011;39838;59.938;30.642;2022-09-27T04:06:49;18.52;;;12.25;;
48925;SDS011;39838;59.938;30.642;2022-09-27T04:09:17;24.00;;;12.05;;
48925;SDS011;39838;59.938;30.642;2022-09-27T04:11:44;25.27;;;12.10;;
48925;SDS011;39838;59.938;30.642;2022-09-27T04:14:13;26.98;;;12.35;;
48925;SDS011;39838;59.938;30.642;2022-09-27T04:16:40;24.08;;;12.45;;
48925;SDS011;39838;59.938;30.642;2022-09-27T04:19:08;23.15;;;11.88;;
48925;SDS011;39838;59.938;30.642;2022-09-27T04:21:35;23.08;;;11.20;;
48925;SDS011;39838;59.938;30.642;2022-09-27T04:24:02;25.25;;;13.20;;
48925;SDS011;39838;59.938;30.642;2022-09-27T04:26:32;21.70;;;11.23;;
48925;SDS011;39838;59.938;30.642;2022-09-27T04:28:59;20.60;;;11.00;;
48925;SDS011;39838;59.938;30.642;2022-09-27T04:31:26;20.48;;;10.55;;
48925;SDS011;39838;59.938;30.642;2022-09-27T04:33:54;20.67;;;11.07;;
48925;SDS011;39838;59.938;30.642;2022-09-27T04:36:21;18.92;;;10.10;;
48925;SDS011;39838;59.938;30.642;2022-09-27T04:38:51;18.17;;;9.95;;
48925;SDS011;39838;59.938;30.642;2022-09-27T04:41:19;28.23;;;10.30;;
48925;SDS011;39838;59.938;30.642;2022-09-27T04:43:49;19.55;;;11.10;;
48925;SDS011;39838;59.938;30.642;2022-09-27T04:46:16;21.80;;;10.80;;
48925;SDS011;39838;59.938;30.642;2022-09-27T04:48:44;19.45;;;10.45;;
48925;SDS011;39838;59.938;30.642;2022-09-27T04:51:12;21.50;;;11.10;;
48925;SDS011;39838;59.938;30.642;2022-09-27T04:53:40;20.65;;;10.75;;
48925;SDS011;39838;59.938;30.642;2022-09-27T04:56:07;25.80;;;11.82;;
48925;SDS011;39838;59.938;30.642;2022-09-27T04:58:35;21.52;;;10.65;;
48925;SDS011;39838;59.938;30.642;2022-09-27T05:01:03;26.30;;;11.70;;
48925;SDS011;39838;59.938;30.642;2022-09-27T05:03:31;22.98;;;11.25;;
48925;SDS011;39838;59.938;30.642;2022-09-27T05:05:59;22.00;;;11.52;;
48925;SDS011;39838;59.938;30.642;2022-09-27T05:08:30;20.38;;;10.63;;
48925;SDS011;39838;59.938;30.642;2022-09-27T05:10:57;20.35;;;11.07;;
48925;SDS011;39838;59.938;30.642;2022-09-27T05:13:24;17.60;;;10.80;;
48925;SDS011;39838;59.938;30.642;2022-09-27T05:15:52;23.27;;;10.25;;
48925;SDS011;39838;59.938;30.642;2022-09-27T05:18:20;19.08;;;10.68;;
48925;SDS011;39838;59.938;30.642;2022-09-27T05:20:48;22.70;;;11.30;;
48925;SDS011;39838;59.938;30.642;2022-09-27T05:23:15;23.27;;;11.25;;
48925;SDS011;39838;59.938;30.642;2022-09-27T05:25:42;23.15;;;11.80;;
48925;SDS011;39838;59.938;30.642;2022-09-27T05:28:09;20.25;;;11.50;;
48925;SDS011;39838;59.938;30.642;2022-09-27T05:30:36;23.73;;;12.15;;
48925;SDS011;39838;59.938;30.642;2022-09-27T05:33:03;18.05;;;11.30;;
48925;SDS011;39838;59.938;30.642;2022-09-27T05:35:32;22.75;;;11.27;;
48925;SDS011;39838;59.938;30.642;2022-09-27T05:38:00;20.00;;;11.25;;
48925;SDS011;39838;59.938;30.642;2022-09-27T05:40:27;22.63;;;12.30;;
48925;SDS011;39838;59.938;30.642;2022-09-27T05:42:55;18.20;;;11.68;;
48925;SDS011;39838;59.938;30.642;2022-09-27T05:45:22;19.95;;;11.50;;
48925;SDS011;39838;59.938;30.642;2022-09-27T05:47:54;20.67;;;12.15;;
48925;SDS011;39838;59.938;30.642;2022-09-27T05:50:22;18.23;;;10.40;;
48925;SDS011;39838;59.938;30.642;2022-09-27T05:52:51;17.23;;;10.98;;
48925;SDS011;39838;59.938;30.642;2022-09-27T05:55:19;18.45;;;10.95;;
48925;SDS011;39838;59.938;30.642;2022-09-27T05:57:53;15.10;;;9.25;;
48925;SDS011;39838;59.938;30.642;2022-09-27T06:00:21;20.33;;;10.15;;
48925;SDS011;39838;59.938;30.642;2022-09-27T06:02:53;15.45;;;9.18;;
48925;SDS011;39838;59.938;30.642;2022-09-27T06:05:23;17.67;;;9.38;;
48925;SDS011;39838;59.938;30.642;2022-09-27T06:07:56;17.45;;;9.45;;
48925;SDS011;39838;59.938;30.642;2022-09-27T06:10:24;17.27;;;8.88;;
48925;SDS011;39838;59.938;30.642;2022-09-27T06:12:52;14.55;;;8.95;;
48925;SDS011;39838;59.938;30.642;2022-09-27T06:15:24;21.50;;;9.40;;
48925;SDS011;39838;59.938;30.642;2022-09-27T06:17:51;16.75;;;8.68;;
48925;SDS011;39838;59.938;30.642;2022-09-27T06:20:18;13.80;;;7.95;;
48925;SDS011;39838;59.938;30.642;2022-09-27T06:22:46;20.08;;;8.30;;
48925;SDS011;39838;59.938;30.642;2022-09-27T06:25:14;16.83;;;8.00;;
48925;SDS011;39838;59.938;30.642;2022-09-27T06:27:42;13.10;;;7.82;;
48925;SDS011;39838;59.938;30.642;2022-09-27T06:30:09;19.98;;;9.10;;
48925;SDS011;39838;59.938;30.642;2022-09-27T06:32:37;19.23;;;9.25;;
48925;SDS011;39838;59.938;30.642;2022-09-27T06:35:04;20.17;;;8.15;;
48925;SDS011;39838;59.938;30.642;2022-09-27T06:37:32;14.60;;;8.70;;
48925;SDS011;39838;59.938;30.642;2022-09-27T06:39:59;19.42;;;8.35;;
48925;SDS011;39838;59.938;30.642;2022-09-27T06:42:28;21.70;;;8.90;;
48925;SDS011;39838;59.938;30.642;2022-09-27T06:44:55;20.45;;;8.75;;
48925;SDS011;39838;59.938;30.642;2022-09-27T06:47:22;17.42;;;8.52;;
48925;SDS011;39838;59.938;30.642;2022-09-27T06:49:51;16.88;;;8.15;;
48925;SDS011;39838;59.938;30.642;2022-09-27T06:52:18;17.73;;;8.35;;
48925;SDS011;39838;59.938;30.642;2022-09-27T06:54:45;17.85;;;8.75;;
48925;SDS011;39838;59.938;30.642;2022-09-27T06:57:12;21.50;;;8.30;;
48925;SDS011;39838;59.938;30.642;2022-09-27T07:00:02;19.45;;;8.63;;
48925;SDS011;39838;59.938;30.642;2022-09-27T07:02:47;17.38;;;8.27;;
48925;SDS011;39838;59.938;30.642;2022-09-27T07:05:14;18.45;;;8.20;;
48925;SDS011;39838;59.938;30.642;2022-09-27T07:07:42;15.65;;;7.70;;
48925;SDS011;39838;59.938;30.642;2022-09-27T07:10:09;13.23;;;7.30;;
48925;SDS011;39838;59.938;30.642;2022-09-27T07:12:37;11.25;;;7.40;;
48925;SDS011;39838;59.938;30.642;2022-09-27T07:15:06;14.88;;;7.63;;
48925;SDS011;39838;59.938;30.642;2022-09-27T07:17:34;12.45;;;7.53;;
48925;SDS011;39838;59.938;30.642;2022-09-27T07:20:01;12.50;;;7.40;;
48925;SDS011;39838;59.938;30.642;2022-09-27T07:22:29;11.43;;;6.63;;
48925;SDS011;39838;59.938;30.642;2022-09-27T07:24:56;20.25;;;7.88;;
48925;SDS011;39838;59.938;30.642;2022-09-27T07:27:23;25.52;;;8.07;;
48925;SDS011;39838;59.938;30.642;2022-09-27T07:29:51;14.45;;;6.78;;
48925;SDS011;39838;59.938;30.642;2022-09-27T07:32:20;32.97;;;7.80;;
48925;SDS011;39838;59.938;30.642;2022-09-27T07:34:47;11.68;;;6.22;;
48925;SDS011;39838;59.938;30.642;2022-09-27T07:37:14;12.27;;;6.70;;
48925;SDS011;39838;59.938;30.642;2022-09-27T07:39:41;12.68;;;6.57;;
48925;SDS011;39838;59.938;30.642;2022-09-27T07:42:09;9.68;;;6.60;;
48925;SDS011;39838;59.938;30.642;2022-09-27T07:44:36;12.82;;;6.60;;
48925;SDS011;39838;59.938;30.642;2022-09-27T07:47:05;13.88;;;6.05;;
48925;SDS011;39838;59.938;30.642;2022-09-27T07:49:34;10.60;;;5.22;;
48925;SDS011;39838;59.938;30.642;2022-09-27T07:52:02;9.32;;;5.10;;
48925;SDS011;39838;59.938;30.642;2022-09-27T07:54:29;8.23;;;4.63;;
48925;SDS011;39838;59.938;30.642;2022-09-27T07:56:56;10.85;;;4.50;;
48925;SDS011;39838;59.938;30.642;2022-09-27T07:59:23;15.00;;;4.82;;
48925;SDS011;39838;59.938;30.642;2022-09-27T08:01:52;9.48;;;4.43;;
48925;SDS011;39838;59.938;30.642;2022-09-27T08:04:20;9.95;;;4.40;;
48925;SDS011;39838;59.938;30.642;2022-09-27T08:06:48;8.23;;;3.50;;
48925;SDS011;39838;59.938;30.642;2022-09-27T08:09:16;11.45;;;3.85;;
48925;SDS011;39838;59.938;30.642;2022-09-27T08:11:43;5.30;;;3.40;;
48925;SDS011;39838;59.938;30.642;2022-09-27T08:14:10;9.18;;;3.60;;
48925;SDS011;39838;59.938;30.642;2022-09-27T08:16:39;6.40;;;3.10;;
48925;SDS011;39838;59.938;30.642;2022-09-27T08:19:09;6.22;;;3.30;;
48925;SDS011;39838;59.938;30.642;2022-09-27T08:21:36;6.03;;;3.00;;
48925;SDS011;39838;59.938;30.642;2022-09-27T08:24:05;5.57;;;2.80;;
48925;SDS011;39838;59.938;30.642;2022-09-27T08:26:32;7.78;;;3.10;;
48925;SDS011;39838;59.938;30.642;2022-09-27T08:28:59;8.20;;;3.30;;
48925;SDS011;39838;59.938;30.642;2022-09-27T08:49:54;18.70;;;4.28;;
48925;SDS011;39838;59.938;30.642;2022-09-27T08:52:30;19.08;;;3.90;;
48925;SDS011;39838;59.938;30.642;2022-09-27T08:55:02;5.57;;;3.03;;
48925;SDS011;39838;59.938;30.642;2022-09-27T08:57:39;5.00;;;2.90;;
48925;SDS011;39838;59.938;30.642;2022-09-27T09:00:09;5.95;;;2.70;;
48925;SDS011;39838;59.938;30.642;2022-09-27T09:02:37;7.32;;;2.63;;
48925;SDS011;39838;59.938;30.642;2022-09-27T09:05:10;9.13;;;2.70;;
48925;SDS011;39838;59.938;30.642;2022-09-27T09:07:53;8.93;;;2.95;;
48925;SDS011;39838;59.938;30.642;2022-09-27T09:10:33;5.53;;;2.30;;
48925;SDS011;39838;59.938;30.642;2022-09-27T09:13:33;3.13;;;2.10;;
48925;SDS011;39838;59.938;30.642;2022-09-27T09:16:21;4.18;;;2.00;;
48925;SDS011;39838;59.938;30.642;2022-09-27T09:19:10;7.03;;;2.50;;
48925;SDS011;39838;59.938;30.642;2022-09-27T09:21:56;6.82;;;2.47;;
48925;SDS011;39838;59.938;30.642;2022-09-27T09:24:38;8.32;;;3.30;;
48925;SDS011;39838;59.938;30.642;2022-09-27T09:27:12;6.90;;;2.85;;
48925;SDS011;39838;59.938;30.642;2022-09-27T09:29:51;5.53;;;2.60;;
48925;SDS011;39838;59.938;30.642;2022-09-27T09:32:33;5.95;;;2.70;;
48925;SDS011;39838;59.938;30.642;2022-09-27T09:35:11;5.22;;;2.25;;
48925;SDS011;39838;59.938;30.642;2022-09-27T09:37:44;7.95;;;2.72;;
48925;SDS011;39838;59.938;30.642;2022-09-27T09:40:16;4.35;;;2.70;;
48925;SDS011;39838;59.938;30.642;2022-09-27T09:42:49;8.45;;;3.20;;
48925;SDS011;39838;59.938;30.642;2022-09-27T09:45:21;7.47;;;2.80;;
48925;SDS011;39838;59.938;30.642;2022-09-27T09:47:53;5.32;;;2.80;;
48925;SDS011;39838;59.938;30.642;2022-09-27T09:50:27;4.40;;;2.60;;
48925;SDS011;39838;59.938;30.642;2022-09-27T09:53:01;8.30;;;2.67;;
48925;SDS011;39838;59.938;30.642;2022-09-27T09:55:37;5.78;;;2.67;;
48925;SDS011;39838;59.938;30.642;2022-09-27T09:58:10;4.75;;;2.60;;
48925;SDS011;39838;59.938;30.642;2022-09-27T10:00:45;4.75;;;2.38;;
48925;SDS011;39838;59.938;30.642;2022-09-27T10:03:13;3.90;;;2.25;;
48925;SDS011;39838;59.938;30.642;2022-09-27T10:05:41;6.72;;;2.50;;
48925;SDS011;39838;59.938;30.642;2022-09-27T10:08:11;5.95;;;2.40;;
48925;SDS011;39838;59.938;30.642;2022-09-27T10:10:43;4.38;;;2.22;;
48925;SDS011;39838;59.938;30.642;2022-09-27T10:13:12;3.75;;;2.15;;
48925;SDS011;39838;59.938;30.642;2022-09-27T10:15:42;7.43;;;2.67;;
48925;SDS011;39838;59.938;30.642;2022-09-27T10:18:16;3.85;;;2.30;;
48925;SDS011;39838;59.938;30.642;2022-09-27T10:20:46;4.03;;;2.22;;
48925;SDS011;39838;59.938;30.642;2022-09-27T10:23:19;5.15;;;2.40;;
48925;SDS011;39838;59.938;30.642;2022-09-27T10:25:51;3.78;;;2.53;;
48925;SDS011;39838;59.938;30.642;2022-09-27T10:28:33;6.85;;;2.80;;
48925;SDS011;39838;59.938;30.642;2022-09-27T10:31:03;4.07;;;2.70;;
48925;SDS011;39838;59.938;30.642;2022-09-27T10:33:31;4.35;;;2.72;;
48925;SDS011;39838;59.938;30.642;2022-09-27T10:36:00;4.20;;;2.05;;
48925;SDS011;39838;59.938;30.642;2022-09-27T10:38:30;2.78;;;2.10;;
48925;SDS011;39838;59.938;30.642;2022-09-27T10:41:14;3.70;;;2.30;;
48925;SDS011;39838;59.938;30.642;2022-09-27T10:43:43;3.20;;;2.42;;
48925;SDS011;39838;59.938;30.642;2022-09-27T10:46:12;2.90;;;2.05;;
48925;SDS011;39838;59.938;30.642;2022-09-27T10:48:46;3.58;;;2.30;;
48925;SDS011;39838;59.938;30.642;2022-09-27T10:51:24;3.08;;;2.00;;
48925;SDS011;39838;59.938;30.642;2022-09-27T10:53:57;2.45;;;1.73;;
48925;SDS011;39838;59.938;30.642;2022-09-27T10:56:26;3.88;;;2.13;;
48925;SDS011;39838;59.938;30.642;2022-09-27T10:58:56;2.50;;;1.90;;
48925;SDS011;39838;59.938;30.642;2022-09-27T11:01:24;2.72;;;1.83;;
48925;SDS011;39838;59.938;30.642;2022-09-27T11:03:53;3.88;;;2.40;;
48925;SDS011;39838;59.938;30.642;2022-09-27T11:06:28;2.22;;;1.88;;
48925;SDS011;39838;59.938;30.642;2022-09-27T11:09:17;2.95;;;1.77;;
48925;SDS011;39838;59.938;30.642;2022-09-27T11:11:52;3.58;;;1.95;;
48925;SDS011;39838;59.938;30.642;2022-09-27T11:14:34;1.80;;;1.70;;
48925;SDS011;39838;59.938;30.642;2022-09-27T11:17:05;3.95;;;2.13;;
48925;SDS011;39838;59.938;30.642;2022-09-27T11:23:01;7.45;;;2.08;;
48925;SDS011;39838;59.938;30.642;2022-09-27T11:25:43;5.95;;;2.20;;
48925;SDS011;39838;59.938;30.642;2022-09-27T11:28:24;4.85;;;2.00;;
48925;SDS011;39838;59.938;30.642;2022-09-27T11:31:06;5.55;;;2.17;;
48925;SDS011;39838;59.938;30.642;2022-09-27T11:36:53;6.05;;;2.38;;
48925;SDS011;39838;59.938;30.642;2022-09-27T11:39:31;3.72;;;2.22;;
48925;SDS011;39838;59.938;30.642;2022-09-27T11:42:15;4.47;;;2.17;;
48925;SDS011;39838;59.938;30.642;2022-09-27T11:44:59;2.70;;;2.10;;
48925;SDS011;39838;59.938;30.642;2022-09-27T11:47:45;5.70;;;2.40;;
48925;SDS011;39838;59.938;30.642;2022-09-27T11:50:39;3.40;;;2.30;;
48925;SDS011;39838;59.938;30.642;2022-09-27T11:53:17;3.00;;;2.30;;
48925;SDS011;39838;59.938;30.642;2022-09-27T11:55:55;2.97;;;2.10;;
48925;SDS011;39838;59.938;30.642;2022-09-27T11:58:35;11.25;;;2.80;;
48925;SDS011;39838;59.938;30.642;2022-09-27T12:01:14;2.88;;;2.00;;
48925;SDS011;39838;59.938;30.642;2022-09-27T12:06:48;4.13;;;2.20;;
48925;SDS011;39838;59.938;30.642;2022-09-27T12:09:21;6.20;;;2.47;;
48925;SDS011;39838;59.938;30.642;2022-09-27T12:11:54;4.32;;;2.20;;
48925;SDS011;39838;59.938;30.642;2022-09-27T12:14:32;2.42;;;1.85;;
48925;SDS011;39838;59.938;30.642;2022-09-27T12:17:03;2.60;;;1.85;;
48925;SDS011;39838;59.938;30.642;2022-09-27T12:19:33;3.22;;;1.85;;
48925;SDS011;39838;59.938;30.642;2022-09-27T12:22:04;2.88;;;2.03;;
48925;SDS011;39838;59.938;30.642;2022-09-27T12:24:37;2.35;;;2.10;;
48925;SDS011;39838;59.938;30.642;2022-09-27T12:27:07;3.55;;;2.00;;
48925;SDS011;39838;59.938;30.642;2022-09-27T12:29:41;4.35;;;2.10;;
48925;SDS011;39838;59.938;30.642;2022-09-27T12:32:13;6.28;;;2.08;;
48925;SDS011;39838;59.938;30.642;2022-09-27T12:34:45;2.72;;;2.20;;
48925;SDS011;39838;59.938;30.642;2022-09-27T12:37:18;3.40;;;2.00;;
48925;SDS011;39838;59.938;30.642;2022-09-27T12:39:50;5.15;;;2.20;;
48925;SDS011;39838;59.938;30.642;2022-09-27T12:42:22;9.23;;;2.70;;
48925;SDS011;39838;59.938;30.642;2022-09-27T12:44:52;4.55;;;2.10;;
48925;SDS011;39838;59.938;30.642;2022-09-27T12:47:27;4.78;;;2.05;;
48925;SDS011;39838;59.938;30.642;2022-09-27T12:50:18;6.78;;;2.33;;
48925;SDS011;39838;59.938;30.642;2022-09-27T12:52:54;5.35;;;2.50;;
48925;SDS011;39838;59.938;30.642;2022-09-27T12:55:41;3.88;;;2.45;;
48925;SDS011;39838;59.938;30.642;2022-09-27T12:58:35;4.35;;;2.15;;
48925;SDS011;39838;59.938;30.642;2022-09-27T13:01:26;8.27;;;2.42;;
48925;SDS011;39838;59.938;30.642;2022-09-27T13:04:17;4.72;;;2.10;;
48925;SDS011;39838;59.938;30.642;2022-09-27T13:06:58;5.72;;;2.20;;
48925;SDS011;39838;59.938;30.642;2022-09-27T13:09:39;4.25;;;2.40;;
48925;SDS011;39838;59.938;30.642;2022-09-27T13:12:21;6.22;;;2.40;;
48925;SDS011;39838;59.938;30.642;2022-09-27T13:14:55;4.28;;;2.40;;
48925;SDS011;39838;59.938;30.642;2022-09-27T13:20:31;6.28;;;2.60;;
48925;SDS011;39838;59.938;30.642;2022-09-27T13:32:02;10.30;;;3.38;;
48925;SDS011;39838;59.938;30.642;2022-09-27T13:34:41;7.35;;;3.28;;
48925;SDS011;39838;59.938;30.642;2022-09-27T13:40:22;6.97;;;3.70;;
48925;SDS011;39838;59.938;30.642;2022-09-27T13:45:54;13.00;;;5.57;;
48925;SDS011;39838;59.938;30.642;2022-09-27T13:48:25;11.43;;;5.82;;
48925;SDS011;39838;59.938;30.642;2022-09-27T13:50:59;13.10;;;6.32;;
48925;SDS011;39838;59.938;30.642;2022-09-27T13:53:29;13.80;;;6.72;;
48925;SDS011;39838;59.938;30.642;2022-09-27T13:56:00;11.52;;;6.70;;
48925;SDS011;39838;59.938;30.642;2022-09-27T13:58:41;14.98;;;5.88;;
48925;SDS011;39838;59.938;30.642;2022-09-27T14:01:20;12.40;;;6.43;;
48925;SDS011;39838;59.938;30.642;2022-09-27T14:03:54;11.27;;;5.88;;
48925;SDS011;39838;59.938;30.642;2022-09-27T14:06:28;11.00;;;6.30;;
48925;SDS011;39838;59.938;30.642;2022-09-27T14:09:01;11.52;;;6.80;;
48925;SDS011;39838;59.938;30.642;2022-09-27T14:11:32;13.50;;;6.35;;
48925;SDS011;39838;59.938;30.642;2022-09-27T14:14:02;10.77;;;6.13;;
48925;SDS011;39838;59.938;30.642;2022-09-27T14:16:32;10.02;;;6.28;;
48925;SDS011;39838;59.938;30.642;2022-09-27T14:19:01;9.30;;;6.03;;
48925;SDS011;39838;59.938;30.642;2022-09-27T14:21:31;8.93;;;5.75;;
48925;SDS011;39838;59.938;30.642;2022-09-27T14:24:19;9.93;;;5.78;;
48925;SDS011;39838;59.938;30.642;2022-09-27T14:27:02;9.65;;;5.72;;
48925;SDS011;39838;59.938;30.642;2022-09-27T14:29:32;9.32;;;6.15;;
48925;SDS011;39838;59.938;30.642;2022-09-27T14:32:05;13.57;;;5.72;;
48925;SDS011;39838;59.938;30.642;2022-09-27T14:34:36;10.30;;;5.55;;
48925;SDS011;39838;59.938;30.642;2022-09-27T14:37:10;12.98;;;5.38;;
48925;SDS011;39838;59.938;30.642;2022-09-27T14:39:57;12.15;;;5.60;;
48925;SDS011;39838;59.938;30.642;2022-09-27T14:42:30;11.15;;;5.70;;
48925;SDS011;39838;59.938;30.642;2022-09-27T14:45:02;11.52;;;5.80;;
48925;SDS011;39838;59.938;30.642;2022-09-27T14:47:43;11.95;;;5.90;;
48925;SDS011;39838;59.938;30.642;2022-09-27T14:50:15;11.18;;;5.88;;
48925;SDS011;39838;59.938;30.642;2022-09-27T14:52:46;8.80;;;5.38;;
48925;SDS011;39838;59.938;30.642;2022-09-27T14:55:15;9.68;;;5.68;;
48925;SDS011;39838;59.938;30.642;2022-09-27T14:57:46;9.38;;;6.20;;
48925;SDS011;39838;59.938;30.642;2022-09-27T15:00:17;10.27;;;5.88;;
48925;SDS011;39838;59.938;30.642;2022-09-27T15:02:47;12.82;;;6.50;;
48925;SDS011;39838;59.938;30.642;2022-09-27T15:05:19;12.98;;;7.10;;
48925;SDS011;39838;59.938;30.642;2022-09-27T15:07:49;12.82;;;6.03;;
48925;SDS011;39838;59.938;30.642;2022-09-27T15:10:20;10.55;;;6.18;;
48925;SDS011;39838;59.938;30.642;2022-09-27T15:12:52;14.07;;;7.00;;
48925;SDS011;39838;59.938;30.642;2022-09-27T15:15:24;14.05;;;6.45;;
48925;SDS011;39838;59.938;30.642;2022-09-27T15:17:55;10.23;;;6.75;;
48925;SDS011;39838;59.938;30.642;2022-09-27T15:20:24;11.25;;;6.40;;
48925;SDS011;39838;59.938;30.642;2022-09-27T15:22:54;11.40;;;6.28;;
48925;SDS011;39838;59.938;30.642;2022-09-27T15:25:23;9.90;;;6.40;;
48925;SDS011;39838;59.938;30.642;2022-09-27T15:27:56;10.47;;;7.23;;
48925;SDS011;39838;59.938;30.642;2022-09-27T15:30:26;11.18;;;7.00;;
48925;SDS011;39838;59.938;30.642;2022-09-27T15:32:58;11.35;;;6.57;;
48925;SDS011;39838;59.938;30.642;2022-09-27T15:35:26;14.50;;;7.45;;
48925;SDS011;39838;59.938;30.642;2022-09-27T15:38:12;13.27;;;7.82;;
48925;SDS011;39838;59.938;30.642;2022-09-27T15:43:35;14.68;;;9.07;;
48925;SDS011;39838;59.938;30.642;2022-09-27T15:46:20;13.57;;;8.75;;
48925;SDS011;39838;59.938;30.642;2022-09-27T15:51:48;12.90;;;8.00;;